TimeCST,TemperatureF,Dew PointF,Humidity,Sea Level PressureIn,VisibilityMPH,Wind Direction,Wind SpeedMPH,Gust SpeedMPH,PrecipitationIn,Events,Conditions,WindDirDegrees,DateUTC
12:15 AM,59.9,48.4,66,30.04,10.0,SW,10.4,-,N/A,,Overcast,230,2012-11-23 06:15:00
12:35 AM,59.0,49.3,70,30.04,7.0,SW,9.2,-,N/A,Rain,Light Rain,230,2012-11-23 06:35:00
12:55 AM,58.3,50.0,74,30.03,10.0,SW,9.2,-,N/A,,Drizzle,230,2012-11-23 06:55:00
1:15 AM,59.0,50.2,73,30.04,10.0,WSW,12.7,18.4,N/A,,Overcast,240,2012-11-23 07:15:00
1:35 AM,59.0,51.8,77,30.03,10.0,WSW,12.7,-,N/A,,Overcast,250,2012-11-23 07:35:00
1:55 AM,58.6,52.9,81,30.05,10.0,WSW,12.7,-,N/A,,Overcast,250,2012-11-23 07:55:00
2:15 AM,58.1,52.9,83,30.05,10.0,WSW,11.5,-,N/A,,Overcast,250,2012-11-23 08:15:00
2:35 AM,58.1,53.1,83,30.05,10.0,West,11.5,-,N/A,,Overcast,260,2012-11-23 08:35:00
2:55 AM,58.1,52.9,83,30.07,10.0,West,18.4,24.2,N/A,,Overcast,280,2012-11-23 08:55:00
3:15 AM,56.5,46.9,70,30.07,10.0,NW,17.3,29.9,N/A,,Overcast,310,2012-11-23 09:15:00
3:35 AM,54.1,44.4,70,30.09,10.0,WNW,19.6,24.2,N/A,,Overcast,300,2012-11-23 09:35:00
3:55 AM,52.5,41.4,66,30.09,10.0,NW,18.4,23.0,N/A,,Overcast,320,2012-11-23 09:55:00
4:15 AM,51.3,41.9,70,30.10,10.0,NW,15.0,21.9,N/A,,Overcast,310,2012-11-23 10:15:00
4:35 AM,49.8,37.9,64,30.12,10.0,WNW,17.3,23.0,N/A,,Scattered Clouds,300,2012-11-23 10:35:00
4:55 AM,48.2,36.9,65,30.13,7.0,NW,11.5,24.2,N/A,,Scattered Clouds,320,2012-11-23 10:55:00
5:15 AM,46.6,37.4,70,30.13,10.0,NW,11.5,-,N/A,,Scattered Clouds,310,2012-11-23 11:15:00
5:35 AM,45.3,37.6,74,30.13,10.0,NW,8.1,-,N/A,,Clear,310,2012-11-23 11:35:00
5:55 AM,44.1,37.4,77,30.14,10.0,WNW,6.9,-,N/A,,Clear,300,2012-11-23 11:55:00
6:15 AM,42.8,37.4,81,30.15,10.0,WNW,8.1,-,N/A,,Clear,300,2012-11-23 12:15:00
6:35 AM,41.9,37.4,84,30.15,10.0,WNW,6.9,-,N/A,,Clear,290,2012-11-23 12:35:00
6:55 AM,42.1,37.2,83,30.16,7.0,WNW,6.9,-,N/A,,Clear,290,2012-11-23 12:55:00
7:15 AM,41.0,37.0,86,30.17,7.0,West,8.1,-,N/A,,Clear,280,2012-11-23 13:15:00
7:35 AM,44.1,37.8,78,30.17,7.0,West,6.9,-,N/A,,Clear,280,2012-11-23 13:35:00
7:55 AM,45.5,37.0,72,30.18,7.0,WNW,11.5,-,N/A,,Clear,290,2012-11-23 13:55:00
8:15 AM,46.4,36.3,68,30.19,10.0,WNW,12.7,17.3,N/A,,Clear,290,2012-11-23 14:15:00
8:35 AM,47.3,36.1,65,30.19,10.0,West,11.5,16.1,N/A,,Clear,270,2012-11-23 14:35:00
8:55 AM,48.2,36.3,63,30.20,7.0,West,12.7,18.4,N/A,,Clear,270,2012-11-23 14:55:00
9:15 AM,48.7,36.0,61,30.20,10.0,West,16.1,20.7,N/A,,Clear,280,2012-11-23 15:15:00
9:35 AM,48.9,35.6,60,30.20,10.0,WNW,16.1,23.0,N/A,,Clear,300,2012-11-23 15:35:00
9:55 AM,49.1,35.2,59,30.21,7.0,WNW,17.3,27.6,N/A,,Clear,300,2012-11-23 15:55:00
10:15 AM,48.4,35.2,60,30.21,10.0,WNW,19.6,26.5,N/A,,Scattered Clouds,290,2012-11-23 16:15:00
10:35 AM,49.1,36.3,61,30.21,10.0,WNW,16.1,21.9,N/A,,Scattered Clouds,290,2012-11-23 16:35:00
10:55 AM,50.0,36.0,59,30.21,10.0,WNW,21.9,28.8,N/A,,Mostly Cloudy,300,2012-11-23 16:55:00
11:15 AM,48.7,35.4,60,30.21,10.0,WNW,20.7,27.6,N/A,,Mostly Cloudy,290,2012-11-23 17:15:00
11:35 AM,47.3,33.1,58,30.20,10.0,WNW,24.2,29.9,N/A,,Overcast,300,2012-11-23 17:35:00
11:55 AM,47.5,32.4,56,30.20,7.0,WNW,25.3,31.1,N/A,,Overcast,290,2012-11-23 17:55:00
12:15 PM,47.7,32.7,56,30.20,10.0,WNW,17.3,25.3,N/A,,Mostly Cloudy,290,2012-11-23 18:15:00
12:35 PM,47.3,32.5,57,30.20,10.0,WNW,19.6,27.6,N/A,,Clear,300,2012-11-23 18:35:00
12:55 PM,48.2,32.9,55,30.20,10.0,WNW,17.3,24.2,N/A,,Scattered Clouds,300,2012-11-23 18:55:00
1:15 PM,48.2,32.4,54,30.20,10.0,WNW,18.4,28.8,N/A,,Scattered Clouds,300,2012-11-23 19:15:00
1:35 PM,47.7,32.0,55,30.20,10.0,West,17.3,26.5,N/A,,Scattered Clouds,280,2012-11-23 19:35:00
1:55 PM,48.0,30.2,50,30.21,7.0,WNW,19.6,28.8,N/A,,Scattered Clouds,290,2012-11-23 19:55:00
2:15 PM,47.5,29.5,50,30.21,-9999.0,WNW,17.3,-,N/A,,Unknown,290,2012-11-23 20:15:00
2:35 PM,46.9,28.2,48,30.21,7.0,WNW,17.3,28.8,N/A,,Clear,290,2012-11-23 20:35:00
2:55 PM,47.1,29.1,50,30.21,7.0,NW,16.1,24.2,N/A,,Clear,320,2012-11-23 20:55:00
3:15 PM,46.8,28.8,50,30.21,7.0,NW,16.1,25.3,N/A,,Clear,310,2012-11-23 21:15:00
3:35 PM,45.9,28.4,51,30.22,10.0,WNW,13.8,26.5,N/A,,Clear,300,2012-11-23 21:35:00
3:55 PM,45.3,27.0,49,30.22,7.0,NW,16.1,-,N/A,,Clear,320,2012-11-23 21:55:00
4:15 PM,43.9,23.9,45,30.23,10.0,WNW,16.1,24.2,N/A,,Clear,300,2012-11-23 22:15:00
4:35 PM,42.4,25.3,51,30.24,7.0,WNW,12.7,17.3,N/A,,Clear,300,2012-11-23 22:35:00
4:55 PM,41.0,25.9,55,30.25,10.0,NW,12.7,-,N/A,,Clear,310,2012-11-23 22:55:00
5:15 PM,40.3,25.7,56,30.26,10.0,WNW,10.4,-,N/A,,Clear,300,2012-11-23 23:15:00
5:35 PM,39.9,24.8,55,30.27,10.0,NW,10.4,-,N/A,,Clear,310,2012-11-23 23:35:00
5:55 PM,38.5,25.7,60,30.28,10.0,WNW,9.2,-,N/A,,Clear,300,2012-11-23 23:55:00
6:35 PM,37.6,25.5,62,30.28,10.0,WNW,9.2,-,N/A,,Clear,300,2012-11-24 00:35:00
6:55 PM,37.4,25.5,62,30.29,10.0,NW,9.2,-,N/A,,Clear,310,2012-11-24 00:55:00
7:15 PM,37.4,25.5,62,30.29,7.0,NW,12.7,-,N/A,,Clear,310,2012-11-24 01:15:00
7:35 PM,36.7,25.7,64,30.30,10.0,NW,11.5,-,N/A,,Clear,310,2012-11-24 01:35:00
7:55 PM,35.6,26.1,68,30.30,10.0,NW,8.1,-,N/A,,Clear,320,2012-11-24 01:55:00
8:15 PM,36.0,24.8,64,30.30,10.0,NW,10.4,-,N/A,,Clear,320,2012-11-24 02:15:00
8:35 PM,34.7,24.8,67,30.30,10.0,NW,8.1,-,N/A,,Clear,320,2012-11-24 02:35:00
8:55 PM,34.9,24.4,66,30.30,10.0,NNW,11.5,-,N/A,,Clear,330,2012-11-24 02:55:00
9:15 PM,34.3,24.1,66,30.30,10.0,NW,10.4,-,N/A,,Clear,320,2012-11-24 03:15:00
9:35 PM,34.0,23.9,67,30.30,10.0,NNW,11.5,16.1,N/A,,Clear,330,2012-11-24 03:35:00
9:55 PM,33.4,24.3,69,30.31,10.0,NW,10.4,-,N/A,,Clear,320,2012-11-24 03:55:00
10:15 PM,33.3,24.1,69,30.31,10.0,NW,11.5,-,N/A,,Clear,310,2012-11-24 04:15:00
10:35 PM,32.2,24.4,73,30.31,10.0,NW,8.1,-,N/A,,Clear,310,2012-11-24 04:35:00
10:55 PM,32.0,24.8,75,30.31,10.0,NW,8.1,-,N/A,,Clear,310,2012-11-24 04:55:00
11:15 PM,32.0,24.1,73,30.31,10.0,NW,11.5,-,N/A,,Clear,310,2012-11-24 05:15:00
11:35 PM,32.0,22.3,67,30.31,10.0,NW,12.7,18.4,N/A,,Clear,310,2012-11-24 05:35:00
11:55 PM,32.0,22.5,68,30.31,10.0,NW,11.5,-,N/A,,Clear,310,2012-11-24 05:55:00